createdAt,value
2018-08-18T00:00:28.613Z,99.90
2018-08-18T00:02:57.243Z,99.90
2018-08-18T00:05:25.934Z,99.90
2018-08-18T00:07:54.609Z,99.90
2018-08-18T00:10:23.535Z,99.90
2018-08-18T00:12:52.787Z,99.90
2018-08-18T00:15:21.534Z,99.90
2018-08-18T00:17:50.029Z,99.90
2018-08-18T00:20:21.722Z,99.90
2018-08-18T00:22:51.053Z,99.90
2018-08-18T00:25:19.689Z,99.90
2018-08-18T00:27:48.576Z,99.90
2018-08-18T00:30:22.357Z,99.90
2018-08-18T00:32:51.322Z,99.90
2018-08-18T00:35:20.254Z,99.90
2018-08-18T00:37:49.078Z,99.90
2018-08-18T00:40:17.524Z,99.90
2018-08-18T00:42:46.338Z,99.90
2018-08-18T00:45:14.826Z,99.90
2018-08-18T00:47:43.496Z,99.90
2018-08-18T00:50:16.913Z,99.90
2018-08-18T00:52:46.016Z,99.90
2018-08-18T00:55:14.901Z,99.90
2018-08-18T00:57:43.612Z,99.90
2018-08-18T01:00:12.168Z,99.90
2018-08-18T01:02:40.905Z,99.90
2018-08-18T01:05:09.421Z,99.90
2018-08-18T01:07:38.877Z,99.90
2018-08-18T01:10:07.518Z,99.90
2018-08-18T01:12:36.239Z,99.90
2018-08-18T01:15:07.834Z,99.90
2018-08-18T01:17:36.459Z,99.90
2018-08-18T01:20:06.392Z,99.90
2018-08-18T01:22:35.198Z,99.90
2018-08-18T01:25:03.931Z,99.90
2018-08-18T01:27:38.121Z,99.90
2018-08-18T01:30:06.893Z,99.90
2018-08-18T01:32:35.437Z,99.90
2018-08-18T01:35:04.149Z,99.90
2018-08-18T01:37:33.479Z,99.90
2018-08-18T01:40:02.370Z,99.90
2018-08-18T01:42:33.221Z,99.90
2018-08-18T01:45:01.775Z,99.90
2018-08-18T01:47:31.140Z,99.90
2018-08-18T01:50:05.859Z,99.90
2018-08-18T01:52:37.001Z,99.90
2018-08-18T01:55:07.311Z,99.90
2018-08-18T01:57:35.881Z,99.90
2018-08-18T02:00:35.485Z,99.90
2018-08-18T02:03:04.104Z,99.90
2018-08-18T02:05:33.156Z,99.90
2018-08-18T02:08:01.795Z,99.90
2018-08-18T02:10:31.468Z,99.90
2018-08-18T02:13:04.571Z,99.90
2018-08-18T02:15:33.888Z,99.90
2018-08-18T02:18:02.673Z,99.90
2018-08-18T02:20:31.318Z,99.90
2018-08-18T02:23:00.940Z,99.90
2018-08-18T02:25:29.476Z,99.90
2018-08-18T02:27:58.086Z,99.90
2018-08-18T02:30:26.564Z,99.90
2018-08-18T02:32:55.301Z,99.90
2018-08-18T02:35:24.055Z,99.90
2018-08-18T02:37:53.178Z,99.90
2018-08-18T02:40:21.893Z,99.90
2018-08-18T02:42:50.501Z,99.90
2018-08-18T02:45:19.109Z,99.90
2018-08-18T02:47:47.669Z,99.90
2018-08-18T02:50:16.277Z,99.90
2018-08-18T02:52:44.764Z,99.90
2018-08-18T02:55:13.352Z,99.90
2018-08-18T02:57:44.986Z,99.90
2018-08-18T03:00:20.531Z,99.90
2018-08-18T03:02:49.013Z,99.90
2018-08-18T03:05:18.158Z,99.90
2018-08-18T03:07:49.735Z,99.90
2018-08-18T03:10:22.606Z,99.90
2018-08-18T03:12:52.421Z,99.90
2018-08-18T03:15:34.501Z,99.90
2018-08-18T03:18:03.444Z,99.90
2018-08-18T03:20:32.093Z,99.90
2018-08-18T03:23:00.520Z,99.90
2018-08-18T03:25:40.265Z,99.90
2018-08-18T03:28:09.739Z,99.90
2018-08-18T03:30:38.328Z,99.90
2018-08-18T03:33:06.942Z,99.90
2018-08-18T03:35:36.542Z,99.90
2018-08-18T03:38:05.037Z,99.90
2018-08-18T03:40:33.572Z,99.90
2018-08-18T03:43:02.157Z,99.90
2018-08-18T03:45:30.786Z,99.90
2018-08-18T03:48:00.146Z,99.90
2018-08-18T03:50:42.693Z,99.90
2018-08-18T03:53:11.310Z,99.90
2018-08-18T03:55:40.407Z,99.90
2018-08-18T03:58:09.076Z,99.90
2018-08-18T04:00:37.884Z,99.90
2018-08-18T04:03:06.446Z,99.90
2018-08-18T04:05:35.026Z,99.90
2018-08-18T04:08:03.637Z,99.90
2018-08-18T04:10:32.109Z,99.90
2018-08-18T04:13:01.794Z,99.90
2018-08-18T04:15:30.481Z,99.90
2018-08-18T04:18:03.352Z,99.90
2018-08-18T04:20:31.844Z,99.90
2018-08-18T04:23:00.263Z,99.90
2018-08-18T04:25:28.944Z,99.90
2018-08-18T04:27:57.832Z,99.90
2018-08-18T04:30:26.279Z,99.90
2018-08-18T04:33:02.986Z,99.90
2018-08-18T04:35:32.374Z,99.90
2018-08-18T04:38:02.834Z,99.90
2018-08-18T04:40:31.625Z,99.90
2018-08-18T04:43:01.068Z,99.90
2018-08-18T04:45:30.471Z,99.90
2018-08-18T04:47:59.300Z,99.90
2018-08-18T04:50:27.982Z,99.90
2018-08-18T04:52:56.449Z,99.90
2018-08-18T04:55:25.061Z,99.90
2018-08-18T04:58:00.218Z,99.90
2018-08-18T05:00:28.677Z,99.90
2018-08-18T05:02:59.395Z,99.90
2018-08-18T05:05:29.178Z,99.90
2018-08-18T05:07:59.260Z,99.90
2018-08-18T05:10:28.820Z,99.90
2018-08-18T05:12:57.358Z,99.90
2018-08-18T05:15:26.071Z,99.90
2018-08-18T05:17:54.605Z,99.90
2018-08-18T05:20:25.169Z,99.90
2018-08-18T05:22:53.716Z,99.90
2018-08-18T05:25:28.628Z,99.90
2018-08-18T05:27:57.401Z,99.90
2018-08-18T05:30:26.109Z,99.90
2018-08-18T05:32:54.578Z,99.90
2018-08-18T05:35:22.977Z,99.90
2018-08-18T05:37:51.418Z,99.90
2018-08-18T05:40:19.845Z,99.90
2018-08-18T05:42:48.625Z,99.90
2018-08-18T05:45:25.096Z,99.90
2018-08-18T05:47:54.077Z,99.90
2018-08-18T05:50:24.844Z,99.90
2018-08-18T05:52:58.117Z,99.90
2018-08-18T05:55:26.873Z,99.90
2018-08-18T05:57:56.324Z,99.90
2018-08-18T06:00:25.416Z,99.90
2018-08-18T06:02:59.129Z,99.90
2018-08-18T06:05:29.941Z,99.90
2018-08-18T06:07:59.767Z,99.90
2018-08-18T06:10:28.773Z,99.90
2018-08-18T06:12:58.281Z,99.90
2018-08-18T06:15:26.858Z,99.90
2018-08-18T06:17:55.502Z,99.90
2018-08-18T06:20:23.937Z,99.90
2018-08-18T06:22:52.358Z,99.90
2018-08-18T06:25:21.010Z,99.90
2018-08-18T06:27:50.183Z,99.90
2018-08-18T06:30:19.547Z,99.90
2018-08-18T06:32:48.393Z,99.90
2018-08-18T06:35:17.014Z,99.90
2018-08-18T06:37:52.609Z,99.90
2018-08-18T06:40:21.513Z,99.90
2018-08-18T06:42:50.433Z,99.90
2018-08-18T06:45:20.385Z,99.90
2018-08-18T06:47:48.822Z,99.90
2018-08-18T06:50:18.412Z,99.90
2018-08-18T06:52:47.473Z,99.90
2018-08-18T06:55:19.838Z,99.90
2018-08-18T06:57:52.236Z,99.90
2018-08-18T07:00:22.888Z,99.90
2018-08-18T07:02:51.356Z,99.90
2018-08-18T07:05:20.909Z,99.90
2018-08-18T07:07:50.442Z,99.90
2018-08-18T07:10:36.251Z,99.90
2018-08-18T07:13:06.338Z,99.90
2018-08-18T07:15:37.642Z,99.90
2018-08-18T07:18:08.457Z,99.90
2018-08-18T07:20:37.132Z,99.90
2018-08-18T07:23:06.307Z,99.90
2018-08-18T07:25:42.818Z,99.90
2018-08-18T07:28:12.240Z,99.90
2018-08-18T07:30:40.807Z,99.90
2018-08-18T07:33:09.415Z,99.90
2018-08-18T07:35:37.905Z,99.90
2018-08-18T07:38:06.331Z,99.90
2018-08-18T07:40:44.879Z,99.90
2018-08-18T07:43:17.793Z,99.90
2018-08-18T07:45:47.242Z,99.90
2018-08-18T07:48:15.792Z,99.90
2018-08-18T07:50:44.793Z,99.90
2018-08-18T07:53:13.274Z,99.90
2018-08-18T07:55:41.974Z,99.90
2018-08-18T07:58:13.046Z,99.90
2018-08-18T08:00:41.860Z,99.90
2018-08-18T08:03:12.181Z,99.90
2018-08-18T08:05:40.782Z,99.90
2018-08-18T08:08:10.115Z,99.90
2018-08-18T08:10:39.277Z,99.90
2018-08-18T08:13:08.413Z,99.90
2018-08-18T08:15:36.940Z,99.90
2018-08-18T08:18:08.255Z,99.90
2018-08-18T08:20:36.823Z,99.90
2018-08-18T08:23:05.615Z,99.90
2018-08-18T08:25:34.341Z,99.90
2018-08-18T08:28:02.794Z,99.90
2018-08-18T08:30:31.433Z,99.90
2018-08-18T08:33:01.572Z,99.90
2018-08-18T08:35:30.953Z,99.90
2018-08-18T08:37:59.629Z,99.90
2018-08-18T08:40:28.416Z,99.90
2018-08-18T08:42:57.477Z,99.90
2018-08-18T08:45:26.017Z,99.90
2018-08-18T08:47:55.102Z,99.90
2018-08-18T08:50:24.903Z,99.90
2018-08-18T08:52:55.644Z,99.90
2018-08-18T08:55:25.519Z,99.90
2018-08-18T08:57:54.205Z,99.90
2018-08-18T09:00:22.721Z,99.90
2018-08-18T09:02:52.340Z,99.90
2018-08-18T09:05:21.006Z,99.90
2018-08-18T09:07:49.626Z,99.90
2018-08-18T09:10:19.038Z,99.90
2018-08-18T09:12:48.235Z,99.90
2018-08-18T09:15:17.462Z,99.90
2018-08-18T09:17:46.722Z,99.90
2018-08-18T09:20:17.830Z,99.90
2018-08-18T09:23:01.534Z,99.90
2018-08-18T09:25:31.602Z,99.90
2018-08-18T09:28:01.657Z,99.90
2018-08-18T09:30:31.564Z,99.90
2018-08-18T09:33:05.781Z,99.90
2018-08-18T09:35:51.076Z,99.90
2018-08-18T09:38:20.390Z,99.90
2018-08-18T09:40:49.400Z,99.90
2018-08-18T09:43:22.868Z,99.90
2018-08-18T09:45:52.661Z,99.90
2018-08-18T09:48:21.253Z,99.90
2018-08-18T09:50:50.218Z,99.90
2018-08-18T09:53:18.715Z,99.90
2018-08-18T09:55:47.340Z,99.90
2018-08-18T09:58:16.702Z,99.90
2018-08-18T10:00:45.149Z,99.90
2018-08-18T10:03:14.194Z,99.90
2018-08-18T10:05:42.895Z,99.90
2018-08-18T10:08:11.941Z,99.90
2018-08-18T10:10:40.643Z,99.90
2018-08-18T10:13:09.521Z,99.90
2018-08-18T10:15:38.213Z,99.90
2018-08-18T10:18:06.766Z,99.90
2018-08-18T10:20:40.468Z,99.90
2018-08-18T10:23:10.445Z,99.90
2018-08-18T10:25:39.107Z,99.90
2018-08-18T10:28:08.277Z,99.90
2018-08-18T10:30:37.645Z,99.90
2018-08-18T10:33:06.297Z,99.90
2018-08-18T10:35:34.994Z,99.90
2018-08-18T10:38:04.891Z,99.90
2018-08-18T10:40:33.485Z,99.90
2018-08-18T10:43:02.482Z,99.90
2018-08-18T10:45:31.133Z,99.90
2018-08-18T10:47:59.749Z,99.90
2018-08-18T10:51:42.049Z,99.90
2018-08-18T10:54:10.505Z,99.90
2018-08-18T10:56:39.152Z,99.90
2018-08-18T10:59:15.231Z,99.90
2018-08-18T11:02:24.888Z,99.90
2018-08-18T11:04:53.576Z,99.90
2018-08-18T11:07:22.089Z,99.90
2018-08-18T11:09:51.841Z,99.90
2018-08-18T11:12:20.565Z,99.90
2018-08-18T11:14:54.326Z,99.90
2018-08-18T11:17:22.803Z,99.90
2018-08-18T11:19:51.558Z,99.90
2018-08-18T11:22:43.945Z,99.90
2018-08-18T11:25:12.678Z,99.90
2018-08-18T11:27:41.265Z,99.90
2018-08-18T11:30:10.441Z,99.90
2018-08-18T11:32:39.893Z,99.90
2018-08-18T11:35:09.188Z,99.90
2018-08-18T11:37:51.767Z,99.90
2018-08-18T11:40:21.318Z,99.90
2018-08-18T11:42:50.669Z,99.90
2018-08-18T11:45:20.358Z,99.60
2018-08-18T11:47:55.692Z,99.50
2018-08-18T11:50:25.701Z,99.90
2018-08-18T11:52:54.549Z,99.20
2018-08-18T11:55:24.280Z,99.70
2018-08-18T11:57:54.405Z,99.90
2018-08-18T12:00:23.065Z,99.90
2018-08-18T12:02:52.955Z,99.30
2018-08-18T12:05:22.155Z,99.40
2018-08-18T12:07:51.592Z,98.20
2018-08-18T12:10:20.561Z,97.60
2018-08-18T12:12:48.952Z,97.30
2018-08-18T12:15:17.511Z,97.80
2018-08-18T12:17:56.515Z,96.90
2018-08-18T12:20:25.814Z,96.60
2018-08-18T12:22:55.546Z,97.70
2018-08-18T12:25:24.126Z,98.10
2018-08-18T12:27:55.334Z,97.50
2018-08-18T12:33:33.437Z,98.10
2018-08-18T12:36:02.365Z,96.70
2018-08-18T12:38:31.617Z,97.10
2018-08-18T12:41:00.101Z,97.60
2018-08-18T12:43:40.362Z,97.60
2018-08-18T12:46:10.625Z,97.70
2018-08-18T12:48:42.357Z,98.10
2018-08-18T12:51:12.033Z,97.90
2018-08-18T12:53:45.955Z,97.50
2018-08-18T12:56:16.243Z,96.40
2018-08-18T12:58:44.812Z,95.80
2018-08-18T13:01:15.266Z,96.00
2018-08-18T13:03:43.761Z,96.60
2018-08-18T13:06:12.229Z,94.80
2018-08-18T13:08:40.853Z,96.20
2018-08-18T13:11:09.872Z,96.00
2018-08-18T13:13:38.463Z,95.80
2018-08-18T13:16:07.768Z,95.60
2018-08-18T13:18:36.268Z,96.20
2018-08-18T13:21:04.857Z,95.80
2018-08-18T13:23:33.665Z,95.50
2018-08-18T13:26:02.339Z,95.50
2018-08-18T13:28:31.078Z,95.40
2018-08-18T13:30:59.740Z,95.20
2018-08-18T13:33:32.354Z,95.80
2018-08-18T13:36:00.842Z,95.80
2018-08-18T13:38:31.813Z,96.30
2018-08-18T13:41:00.448Z,96.60
2018-08-18T13:43:41.774Z,96.00
2018-08-18T13:46:12.057Z,96.60
2018-08-18T13:48:49.733Z,95.70
2018-08-18T13:51:18.335Z,95.60
2018-08-18T13:53:53.789Z,95.70
2018-08-18T13:56:27.684Z,96.20
2018-08-18T13:58:57.447Z,94.90
2018-08-18T14:01:34.401Z,94.80
2018-08-18T14:04:03.212Z,95.30
2018-08-18T14:06:42.317Z,94.70
2018-08-18T14:09:11.224Z,94.40
2018-08-18T14:11:39.746Z,95.40
2018-08-18T14:14:08.413Z,95.00
2018-08-18T14:16:36.889Z,94.30
2018-08-18T14:19:06.550Z,94.50
2018-08-18T14:21:35.082Z,95.10
2018-08-18T14:24:03.649Z,94.40
2018-08-18T14:26:32.236Z,94.90
2018-08-18T14:29:00.866Z,95.20
2018-08-18T14:31:29.649Z,94.80
2018-08-18T14:34:05.095Z,93.90
2018-08-18T14:36:34.289Z,94.10
2018-08-18T14:39:04.081Z,94.40
2018-08-18T14:41:38.480Z,94.30
2018-08-18T14:44:07.714Z,94.30
2018-08-18T14:46:36.463Z,94.10
2018-08-18T14:49:05.069Z,94.50
2018-08-18T14:51:33.752Z,94.80
2018-08-18T14:54:02.590Z,95.60
2018-08-18T14:56:31.442Z,94.60
2018-08-18T14:59:06.787Z,94.70
2018-08-18T15:01:35.397Z,94.90
2018-08-18T15:04:04.072Z,94.90
2018-08-18T15:06:32.870Z,94.50
2018-08-18T15:09:01.449Z,94.20
2018-08-18T15:11:30.222Z,94.00
2018-08-18T15:13:59.206Z,94.40
2018-08-18T15:16:28.019Z,94.30
2018-08-18T15:18:57.393Z,94.40
2018-08-18T15:21:26.924Z,94.40
2018-08-18T15:23:55.414Z,94.10
2018-08-18T15:26:23.992Z,94.70
2018-08-18T15:28:52.537Z,94.30
2018-08-18T15:31:21.283Z,94.30
2018-08-18T15:33:49.927Z,94.60
2018-08-18T15:36:32.597Z,94.70
2018-08-18T15:39:01.400Z,95.20
2018-08-18T15:41:30.210Z,94.50
2018-08-18T15:43:58.716Z,94.80
2018-08-18T15:46:28.427Z,94.70
2018-08-18T15:48:56.979Z,94.10
2018-08-18T15:51:25.381Z,94.60
2018-08-18T15:53:56.069Z,94.50
2018-08-18T15:56:25.697Z,94.90
2018-08-18T15:58:54.985Z,94.80
2018-08-18T16:01:25.454Z,94.60
2018-08-18T16:03:54.935Z,95.40
2018-08-18T16:06:24.748Z,94.60
2018-08-18T16:08:54.285Z,95.00
2018-08-18T16:11:22.961Z,95.70
2018-08-18T16:13:51.922Z,94.90
2018-08-18T16:16:20.600Z,95.10
2018-08-18T16:18:49.434Z,94.70
2018-08-18T16:21:22.180Z,95.10
2018-08-18T16:23:51.668Z,95.20
2018-08-18T16:26:20.165Z,95.10
2018-08-18T16:28:49.444Z,95.00
2018-08-18T16:31:18.092Z,95.20
2018-08-18T16:33:47.145Z,95.80
2018-08-18T16:36:16.218Z,95.50
2018-08-18T16:38:45.444Z,95.50
2018-08-18T16:41:14.296Z,95.50
2018-08-18T16:43:43.499Z,95.80
2018-08-18T16:46:23.337Z,95.50
2018-08-18T16:48:52.776Z,95.70
2018-08-18T16:51:22.256Z,96.80
2018-08-18T16:53:50.880Z,96.30
2018-08-18T16:56:28.061Z,97.10
2018-08-18T16:58:58.019Z,97.60
2018-08-18T17:01:26.571Z,97.20
2018-08-18T17:03:55.463Z,97.10
2018-08-18T17:06:24.055Z,98.10
2018-08-18T17:08:52.614Z,97.00
2018-08-18T17:11:21.302Z,97.30
2018-08-18T17:13:50.026Z,97.40
2018-08-18T17:16:18.915Z,98.00
2018-08-18T17:18:47.338Z,97.20
2018-08-18T17:21:15.922Z,97.90
2018-08-18T17:23:44.588Z,97.90
2018-08-18T17:26:13.170Z,98.90
2018-08-18T17:28:41.806Z,99.10
2018-08-18T17:31:11.019Z,98.40
2018-08-18T17:33:39.756Z,98.90
2018-08-18T17:36:08.550Z,99.10
2018-08-18T17:38:37.085Z,98.80
2018-08-18T17:41:06.314Z,99.30
2018-08-18T17:43:34.947Z,99.20
2018-08-18T17:46:05.194Z,99.50
2018-08-18T17:48:44.714Z,99.90
2018-08-18T17:51:13.394Z,99.90
2018-08-18T17:53:48.765Z,99.90
2018-08-18T17:56:17.328Z,99.90
2018-08-18T17:58:46.022Z,99.90
2018-08-18T18:01:14.597Z,99.90
2018-08-18T18:03:43.694Z,99.90
2018-08-18T18:06:12.255Z,99.90
2018-08-18T18:08:40.700Z,99.90
2018-08-18T18:11:09.296Z,99.90
2018-08-18T18:13:37.971Z,99.90
2018-08-18T18:16:21.565Z,99.90
2018-08-18T18:18:50.424Z,99.90
2018-08-18T18:21:19.634Z,99.90
2018-08-18T18:23:49.061Z,99.90
2018-08-18T18:26:17.609Z,99.90
2018-08-18T18:28:46.243Z,99.90
2018-08-18T18:31:14.796Z,99.90
2018-08-18T18:33:48.129Z,99.90
2018-08-18T18:36:16.888Z,99.90
2018-08-18T18:38:53.854Z,99.90
2018-08-18T18:41:22.545Z,99.90
2018-08-18T18:44:00.772Z,99.90
2018-08-18T18:46:29.543Z,99.90
2018-08-18T18:48:58.361Z,99.90
2018-08-18T18:51:27.400Z,99.90
2018-08-18T18:53:58.149Z,99.90
2018-08-18T18:56:26.766Z,99.90
2018-08-18T18:58:55.309Z,99.90
2018-08-18T19:01:25.105Z,99.90
2018-08-18T19:03:54.365Z,99.90
2018-08-18T19:06:22.950Z,99.90
2018-08-18T19:09:01.168Z,99.90
2018-08-18T19:11:29.955Z,99.90
2018-08-18T19:13:59.424Z,99.90
2018-08-18T19:16:28.207Z,99.90
2018-08-18T19:18:56.872Z,99.90
2018-08-18T19:21:32.289Z,99.90
2018-08-18T19:24:07.164Z,99.90
2018-08-18T19:26:46.358Z,99.90
2018-08-18T19:29:15.250Z,99.90
2018-08-18T19:31:43.835Z,99.90
2018-08-18T19:34:14.415Z,99.90
2018-08-18T19:36:55.663Z,99.90
2018-08-18T19:39:26.313Z,99.90
2018-08-18T19:42:01.518Z,99.90
2018-08-18T19:44:30.065Z,99.90
2018-08-18T19:46:58.618Z,99.90
2018-08-18T19:49:38.997Z,99.90
2018-08-18T19:52:16.374Z,99.90
2018-08-18T19:54:48.266Z,99.90
2018-08-18T19:57:26.749Z,99.90
2018-08-18T20:00:26.339Z,99.90
2018-08-18T20:02:59.361Z,99.90
2018-08-18T20:05:28.834Z,99.90
2018-08-18T20:07:57.290Z,99.90
2018-08-18T20:10:25.921Z,99.90
2018-08-18T20:12:54.529Z,99.90
2018-08-18T20:15:23.212Z,99.90
2018-08-18T20:17:52.543Z,99.90
2018-08-18T20:20:23.196Z,99.90
2018-08-18T20:22:52.687Z,99.90
2018-08-18T20:25:21.365Z,99.90
2018-08-18T20:27:49.997Z,99.90
2018-08-18T20:30:19.083Z,99.90
2018-08-18T20:32:47.513Z,99.90
2018-08-18T20:35:16.170Z,99.90
2018-08-18T20:37:44.697Z,99.90
2018-08-18T20:40:13.402Z,99.90
2018-08-18T20:42:42.805Z,99.90
2018-08-18T20:45:12.260Z,99.90
2018-08-18T20:47:42.014Z,99.90
2018-08-18T20:50:11.753Z,99.90
2018-08-18T20:52:41.438Z,99.90
2018-08-18T20:55:10.870Z,99.90
2018-08-18T20:57:39.357Z,99.90
2018-08-18T21:00:09.905Z,99.90
2018-08-18T21:02:38.388Z,99.90
2018-08-18T21:05:11.966Z,99.90
2018-08-18T21:07:40.747Z,99.90
2018-08-18T21:10:11.869Z,99.90
2018-08-18T21:12:46.129Z,99.90
2018-08-18T21:15:15.381Z,99.90
2018-08-18T21:17:44.174Z,99.90
2018-08-18T21:20:17.053Z,99.90
2018-08-18T21:22:45.518Z,99.90
2018-08-18T21:25:15.072Z,99.90
2018-08-18T21:27:44.288Z,99.90
2018-08-18T21:30:17.662Z,99.90
2018-08-18T21:32:46.468Z,99.90
2018-08-18T21:35:15.177Z,99.90
2018-08-18T21:37:44.476Z,99.90
2018-08-18T21:40:13.300Z,99.90
2018-08-18T21:42:41.893Z,99.90
2018-08-18T21:45:11.905Z,99.90
2018-08-18T21:47:41.093Z,99.90
2018-08-18T21:50:10.170Z,99.90
2018-08-18T21:52:39.194Z,99.90
2018-08-18T21:55:08.035Z,99.90
2018-08-18T21:57:52.160Z,99.90
2018-08-18T22:00:21.187Z,99.90
2018-08-18T22:02:49.756Z,99.90
2018-08-18T22:05:18.606Z,99.90
2018-08-18T22:07:53.030Z,99.90
2018-08-18T22:10:21.956Z,99.90
2018-08-18T22:12:50.549Z,99.90
2018-08-18T22:15:20.472Z,99.90
2018-08-18T22:17:50.426Z,99.90
2018-08-18T22:20:21.097Z,99.90
2018-08-18T22:22:49.758Z,99.90
2018-08-18T22:25:18.098Z,99.90
2018-08-18T22:27:46.712Z,99.90
2018-08-18T22:30:16.230Z,99.90
2018-08-18T22:32:45.799Z,99.90
2018-08-18T22:35:14.929Z,99.90
2018-08-18T22:37:44.281Z,99.90
2018-08-18T22:40:12.818Z,99.90
2018-08-18T22:42:41.548Z,99.90
2018-08-18T22:45:20.942Z,99.90
2018-08-18T22:47:49.677Z,99.90
2018-08-18T22:50:18.438Z,99.90
2018-08-18T22:52:49.813Z,99.90
2018-08-18T22:55:18.669Z,99.90
2018-08-18T22:57:52.316Z,99.90
2018-08-18T23:00:22.175Z,99.90
2018-08-18T23:02:50.630Z,99.90
2018-08-18T23:05:20.538Z,99.90
2018-08-18T23:07:51.360Z,99.90
2018-08-18T23:10:19.809Z,99.90
2018-08-18T23:12:48.474Z,99.90
2018-08-18T23:15:17.095Z,99.90
2018-08-18T23:17:45.881Z,99.90
2018-08-18T23:20:14.480Z,99.90
2018-08-18T23:23:03.782Z,99.90
2018-08-18T23:25:33.785Z,99.90
2018-08-18T23:28:02.341Z,99.90
2018-08-18T23:30:33.764Z,99.90
2018-08-18T23:33:03.881Z,99.90
2018-08-18T23:35:32.548Z,99.90
2018-08-18T23:38:01.301Z,99.90
2018-08-18T23:40:29.894Z,99.90
2018-08-18T23:42:58.725Z,99.90
2018-08-18T23:45:37.924Z,99.90
2018-08-18T23:48:09.584Z,99.90
2018-08-18T23:50:39.609Z,99.90
2018-08-18T23:53:11.329Z,99.90
2018-08-18T23:55:44.644Z,99.90
2018-08-18T23:58:14.077Z,99.90
